createdAt,value
2022-10-01T10:02:15.217Z,10.40
2022-10-01T10:04:42.350Z,10.10
2022-10-01T10:07:19.176Z,10.10
2022-10-01T10:09:47.077Z,9.80
2022-10-01T10:12:32.110Z,10.00
2022-10-01T10:15:09.260Z,9.90
2022-10-01T10:17:38.674Z,9.70
2022-10-01T10:20:12.389Z,9.90
2022-10-01T10:22:40.264Z,9.90
2022-10-01T10:25:21.940Z,10.00
2022-10-01T10:27:56.435Z,9.90
2022-10-01T10:30:24.906Z,9.70
2022-10-01T10:32:54.429Z,9.90
2022-10-01T10:35:28.584Z,9.70
2022-10-01T10:37:59.956Z,9.90
2022-10-01T10:40:43.103Z,9.90
2022-10-01T10:43:22.803Z,9.70
2022-10-01T10:45:57.679Z,10.00
2022-10-01T10:48:35.488Z,10.00
2022-10-01T10:51:05.100Z,10.10
2022-10-01T10:53:44.495Z,9.70
2022-10-01T10:56:29.530Z,10.00
2022-10-01T10:59:10.403Z,10.10
2022-10-01T11:01:43.189Z,9.80
2022-10-01T11:04:36.893Z,9.80
2022-10-01T11:07:05.171Z,9.80
2022-10-01T11:09:59.702Z,9.90
2022-10-01T11:13:00.999Z,9.80
2022-10-01T11:15:44.114Z,9.90
2022-10-01T11:18:34.214Z,10.10
2022-10-01T11:21:28.973Z,9.90
2022-10-01T11:24:11.674Z,10.10
2022-10-01T11:26:42.692Z,9.90
2022-10-01T11:29:28.685Z,10.00
2022-10-01T11:32:19.449Z,10.00
2022-10-01T11:35:05.159Z,10.10
2022-10-01T11:37:39.586Z,10.20
2022-10-01T11:40:47.629Z,10.20
2022-10-01T11:43:46.786Z,10.30
2022-10-01T13:31:00.639Z,11.00
2022-10-01T13:33:32.876Z,10.80
2022-10-01T13:36:02.586Z,10.90
2022-10-01T13:38:38.685Z,10.50
2022-10-01T13:41:21.769Z,10.70
2022-10-01T13:44:33.123Z,10.70
2022-10-01T13:49:36.061Z,10.40
2022-10-01T15:12:01.331Z,10.20
2022-10-01T15:16:57.171Z,10.10
2022-10-01T15:19:24.957Z,10.10
2022-10-01T15:21:57.724Z,10.00
2022-10-01T15:24:34.686Z,9.90
2022-10-01T15:27:04.088Z,9.90
2022-10-01T15:29:32.887Z,9.90
2022-10-01T15:32:03.600Z,9.90
2022-10-01T15:34:34.631Z,9.80
2022-10-01T15:37:02.115Z,9.80
2022-10-01T15:39:38.064Z,9.80
2022-10-01T15:42:33.363Z,9.80
2022-10-01T15:45:09.574Z,9.70
2022-10-01T15:47:38.482Z,9.70
2022-10-01T15:50:11.542Z,9.70
2022-10-01T15:53:04.636Z,9.70
2022-10-01T15:55:42.361Z,9.70
2022-10-01T15:58:20.106Z,9.70
2022-10-01T16:00:47.720Z,9.70
2022-10-01T16:03:26.054Z,9.70
2022-10-01T16:05:55.360Z,9.60
2022-10-01T16:08:46.532Z,9.70
2022-10-01T16:11:14.728Z,9.80
2022-10-01T16:13:47.203Z,9.80
2022-10-01T16:16:15.744Z,9.70
2022-10-01T16:18:43.525Z,9.70
2022-10-01T16:21:11.668Z,9.60
2022-10-01T16:23:49.519Z,9.60
2022-10-01T16:26:28.390Z,9.80
2022-10-01T16:29:06.369Z,9.70
2022-10-01T16:31:37.162Z,9.60
2022-10-01T16:34:15.234Z,9.80
2022-10-01T16:36:42.978Z,9.70
2022-10-01T16:39:12.630Z,9.70
2022-10-01T16:41:43.552Z,9.70
2022-10-01T16:44:13.467Z,9.80
2022-10-01T16:46:40.568Z,9.70
2022-10-01T16:49:14.344Z,9.70
2022-10-01T16:51:42.860Z,9.80
2022-10-01T16:54:24.884Z,9.70
2022-10-01T16:56:56.703Z,9.60
2022-10-01T16:59:24.808Z,9.60
2022-10-01T17:01:55.780Z,9.70
2022-10-01T17:04:28.370Z,9.50
2022-10-01T17:06:58.354Z,9.60
2022-10-01T17:09:25.352Z,9.70
2022-10-01T17:11:52.420Z,9.60
2022-10-01T17:14:21.311Z,9.70
2022-10-01T17:16:50.987Z,9.50
2022-10-01T17:19:19.351Z,9.70
2022-10-01T17:21:46.659Z,9.60
2022-10-01T17:24:14.816Z,9.70
2022-10-01T17:26:45.364Z,9.60
2022-10-01T17:29:12.931Z,9.70
2022-10-01T17:31:40.993Z,9.50
2022-10-01T17:34:08.425Z,9.50
2022-10-01T17:36:35.506Z,9.60
2022-10-01T17:39:02.693Z,9.50
2022-10-01T17:41:29.785Z,9.50
2022-10-01T17:43:58.726Z,9.50
2022-10-01T17:46:26.652Z,9.70
2022-10-01T17:48:53.662Z,9.70
2022-10-01T17:51:21.103Z,9.60
2022-10-01T17:53:48.216Z,9.50
2022-10-01T17:56:19.704Z,9.70
2022-10-01T17:58:47.454Z,9.40
2022-10-01T18:01:22.808Z,9.60
2022-10-01T18:03:58.095Z,9.40
2022-10-01T18:06:25.359Z,9.50
2022-10-01T18:08:56.675Z,9.50
2022-10-01T18:11:26.307Z,9.40
2022-10-01T18:13:53.433Z,9.30
2022-10-01T18:21:48.494Z,9.30
2022-10-01T18:24:17.655Z,9.40
2022-10-01T18:26:46.729Z,9.20
2022-10-01T18:29:26.707Z,9.20
2022-10-01T18:32:14.172Z,9.20
2022-10-01T18:34:55.554Z,9.30
2022-10-01T18:37:24.451Z,9.30
2022-10-01T18:40:07.365Z,9.40
2022-10-01T18:42:54.349Z,9.20
2022-10-01T18:45:34.685Z,9.10
2022-10-01T19:01:24.541Z,9.60
2022-10-01T19:04:22.246Z,9.10
2022-10-01T19:07:10.199Z,9.00
2022-10-01T19:12:35.487Z,8.90
2022-10-01T19:15:08.466Z,9.20
2022-10-01T19:17:47.922Z,8.90
2022-10-01T19:20:33.629Z,8.80
2022-10-01T19:23:31.022Z,8.80
2022-10-01T19:31:22.832Z,9.30
2022-10-01T19:33:56.901Z,9.10
2022-10-01T19:36:34.775Z,9.00
2022-10-01T19:39:10.968Z,8.80
2022-10-01T19:42:16.247Z,8.90
2022-10-01T19:45:02.011Z,8.70
2022-10-01T19:47:41.090Z,8.80
2022-10-01T19:50:39.767Z,8.70
2022-10-01T19:53:30.983Z,8.70
2022-10-01T19:56:00.849Z,8.70
2022-10-01T19:58:30.664Z,8.80
2022-10-01T20:01:00.379Z,8.80
2022-10-01T20:03:40.375Z,8.80
2022-10-01T20:06:09.943Z,8.90
2022-10-01T20:08:55.479Z,8.80
2022-10-01T20:11:42.661Z,8.90
2022-10-01T20:14:38.198Z,8.90
2022-10-01T20:17:15.525Z,8.80
2022-10-01T20:20:02.024Z,8.70
2022-10-01T20:22:58.924Z,8.90
2022-10-01T20:25:46.063Z,8.90
2022-10-01T20:28:31.512Z,8.90
2022-10-01T20:31:17.455Z,8.80
2022-10-01T20:34:09.654Z,8.90
2022-10-01T20:37:09.364Z,8.80
2022-10-01T20:39:41.780Z,8.90
2022-10-01T20:42:15.587Z,9.00
2022-10-01T20:44:43.805Z,9.00
2022-10-01T20:47:33.192Z,9.10
2022-10-01T20:50:09.393Z,9.00
2022-10-01T20:53:03.937Z,9.10
2022-10-01T20:56:05.185Z,9.10
2022-10-01T20:58:44.617Z,9.20
2022-10-01T21:01:20.850Z,9.10
2022-10-01T21:03:53.307Z,8.90
2022-10-01T21:06:30.903Z,8.90
2022-10-01T21:09:15.120Z,8.90
2022-10-01T21:11:49.675Z,8.80
2022-10-01T21:14:46.416Z,8.90
2022-10-01T21:17:33.567Z,8.90
2022-10-01T21:20:03.502Z,8.90
2022-10-01T21:22:31.117Z,8.90
2022-10-01T21:25:13.162Z,8.90
2022-10-01T21:28:22.011Z,8.90
2022-10-01T21:31:26.944Z,9.00
2022-10-01T21:34:13.167Z,8.90
2022-10-01T21:36:55.101Z,9.00
2022-10-01T21:39:31.496Z,8.90
2022-10-01T21:42:08.565Z,8.90
2022-10-01T21:45:06.320Z,8.70
2022-10-01T21:47:59.444Z,8.70
2022-10-01T21:51:02.995Z,8.70
2022-10-01T21:53:44.891Z,8.70
2022-10-01T21:56:14.786Z,8.70
2022-10-01T21:58:50.857Z,8.50
2022-10-01T22:01:46.316Z,8.60
2022-10-01T22:04:24.209Z,8.70
2022-10-01T22:07:02.064Z,8.80
2022-10-01T22:09:43.123Z,8.70
2022-10-01T22:12:12.195Z,8.90
2022-10-01T22:14:40.532Z,8.70
2022-10-01T22:17:20.321Z,8.80
2022-10-01T22:19:51.297Z,8.80
2022-10-01T22:22:22.516Z,8.80
2022-10-01T22:24:53.958Z,8.80
2022-10-01T22:27:25.860Z,8.80
2022-10-01T22:29:58.533Z,8.80
2022-10-01T22:32:35.206Z,9.00
2022-10-01T22:35:09.726Z,9.00
2022-10-01T22:37:50.600Z,8.90
2022-10-01T22:40:31.240Z,8.80
2022-10-01T22:43:06.747Z,8.90
2022-10-01T22:45:59.120Z,8.70
2022-10-01T22:48:40.882Z,8.80
2022-10-01T22:51:50.194Z,8.70
2022-10-01T22:54:29.567Z,8.70
2022-10-01T22:57:08.321Z,8.70
2022-10-01T22:59:56.204Z,8.70
2022-10-01T23:02:39.063Z,8.70
2022-10-01T23:05:27.031Z,8.70
2022-10-01T23:27:03.488Z,8.70
